Time;durP1;ratioP1;P1;durP2;ratioP2;P2;SDS_P1;SDS_P2;PMS_P1;PMS_P2;Temp;Humidity;BMP_temperature;BMP_pressure;BME280_temperature;BME280_humidity;BME280_pressure;Samples;Min_cycle;Max_cycle;Signal;HPM_P1;HPM_P2
2023/04/16 00:00:45;;;;;;;19.10;8.30;;;;;;;5.21;67.94;98826.84;105158;1251;98176;-76
2023/04/16 00:03:30;;;;;;;18.40;7.50;;;;;;;5.23;67.95;98828.48;105165;1259;109891;-76
2023/04/16 00:05:59;;;;;;;16.50;6.80;;;;;;;5.25;67.88;98829.80;105428;1257;104118;-77
2023/04/16 00:08:27;;;;;;;19.20;7.50;;;;;;;5.27;67.98;98829.17;105322;1251;108325;-76
2023/04/16 00:10:55;;;;;;;17.70;7.40;;;;;;;5.27;68.07;98829.50;105354;1251;96606;-76
2023/04/16 00:13:24;;;;;;;17.50;7.20;;;;;;;5.28;68.09;98830.13;105419;1257;97838;-77
2023/04/16 00:15:52;;;;;;;16.90;7.40;;;;;;;5.29;68.08;98826.60;105407;1256;110660;-78
2023/04/16 00:18:20;;;;;;;18.80;8.20;;;;;;;5.29;68.21;98831.69;105363;1255;102351;-75
2023/04/16 00:20:48;;;;;;;16.40;7.70;;;;;;;5.29;68.07;98836.77;105465;1252;107646;-76
2023/04/16 00:23:16;;;;;;;16.10;7.20;;;;;;;5.28;68.26;98836.48;105329;1258;96520;-76
2023/04/16 00:25:44;;;;;;;16.80;7.20;;;;;;;5.27;68.30;98840.75;105433;1251;98316;-76
2023/04/16 00:28:11;;;;;;;15.00;6.70;;;;;;;5.27;68.43;98840.55;105412;1251;109943;-77
2023/04/16 00:30:39;;;;;;;17.20;6.60;;;;;;;5.28;68.21;98840.55;105174;1257;102271;-76
2023/04/16 00:33:07;;;;;;;16.50;6.40;;;;;;;5.28;68.31;98841.38;105406;1264;108363;-76
2023/04/16 00:35:35;;;;;;;12.20;5.80;;;;;;;5.28;68.34;98843.52;105191;1274;97919;-76
2023/04/16 00:38:02;;;;;;;13.90;5.40;;;;;;;5.26;68.31;98840.44;105389;1251;97032;-76
2023/04/16 00:40:30;;;;;;;14.10;5.90;;;;;;;5.26;68.47;98835.89;105179;1268;109651;-76
2023/04/16 00:42:58;;;;;;;13.10;6.00;;;;;;;5.24;68.44;98838.44;105086;1256;102242;-77
2023/04/16 00:45:26;;;;;;;12.50;5.60;;;;;;;5.22;68.40;98835.38;105397;1257;107881;-77
2023/04/16 00:47:55;;;;;;;13.20;6.10;;;;;;;5.21;68.37;98829.45;105375;1254;96581;-76
2023/04/16 00:50:25;;;;;;;12.00;5.00;;;;;;;5.21;68.29;98835.96;105303;1251;97915;-76
2023/04/16 00:52:53;;;;;;;7.60;4.40;;;;;;;5.23;68.22;98837.98;105380;1254;109481;-76
2023/04/16 00:55:21;;;;;;;10.40;4.40;;;;;;;5.25;68.51;98836.29;105375;1256;102661;-76
2023/04/16 00:57:48;;;;;;;11.70;5.10;;;;;;;5.28;68.49;98835.07;105120;1257;107596;-75
2023/04/16 01:00:16;;;;;;;9.40;4.60;;;;;;;5.31;68.64;98838.95;105251;1264;96599;-76
2023/04/16 01:02:44;;;;;;;11.00;4.50;;;;;;;5.33;68.53;98841.30;105280;1257;97096;-77
2023/04/16 01:05:12;;;;;;;9.50;4.60;;;;;;;5.35;68.56;98840.64;105220;1257;109353;-76
2023/04/16 01:07:40;;;;;;;10.50;4.20;;;;;;;5.37;68.82;98843.38;105378;1251;102526;-76
2023/04/16 01:10:07;;;;;;;9.30;4.60;;;;;;;5.38;68.61;98846.32;105195;1264;107749;-76
2023/04/16 01:12:35;;;;;;;7.40;4.20;;;;;;;5.38;68.53;98849.31;105330;1255;96586;-76
2023/04/16 01:15:03;;;;;;;9.30;4.20;;;;;;;5.36;68.63;98847.48;105309;1257;97066;-76
2023/04/16 01:17:31;;;;;;;13.10;6.00;;;;;;;5.33;68.54;98846.58;105330;1267;110558;-77
2023/04/16 01:19:59;;;;;;;14.70;6.50;;;;;;;5.31;68.66;98848.44;105455;1251;102272;-75
2023/04/16 01:22:28;;;;;;;19.80;9.00;;;;;;;5.28;68.49;98842.48;105440;1254;107453;-76
2023/04/16 01:24:55;;;;;;;19.30;8.70;;;;;;;5.22;68.52;98843.29;105425;1251;96638;-75
2023/04/16 01:27:23;;;;;;;20.10;9.80;;;;;;;5.16;68.53;98844.66;105454;1251;97097;-76
2023/04/16 01:29:51;;;;;;;16.90;7.90;;;;;;;5.11;68.58;98843.02;105186;1255;110037;-77
2023/04/16 01:32:19;;;;;;;18.80;7.20;;;;;;;5.09;68.47;98844.54;105326;1265;102448;-77
2023/04/16 01:34:47;;;;;;;16.20;7.30;;;;;;;5.08;68.59;98844.59;105281;1269;107571;-77
2023/04/16 01:37:15;;;;;;;15.60;7.40;;;;;;;5.06;68.60;98840.81;105058;1274;97904;-77
2023/04/16 01:39:43;;;;;;;16.30;6.90;;;;;;;5.05;68.67;98842.98;105311;1254;97110;-76
2023/04/16 01:42:11;;;;;;;16.50;7.50;;;;;;;5.01;68.64;98849.17;105446;1251;109885;-76
2023/04/16 01:44:38;;;;;;;15.20;6.70;;;;;;;4.95;68.54;98848.25;105179;1267;102610;-76
2023/04/16 01:47:07;;;;;;;16.60;7.20;;;;;;;4.90;68.67;98847.11;105440;1265;107401;-76
2023/04/16 01:49:35;;;;;;;14.40;6.30;;;;;;;4.84;68.68;98845.31;105199;1254;96680;-76
2023/04/16 01:52:03;;;;;;;18.70;7.20;;;;;;;4.81;68.69;98845.30;105331;1251;97521;-75
2023/04/16 01:54:31;;;;;;;11.90;5.60;;;;;;;4.79;68.72;98844.86;105443;1256;109549;-76
2023/04/16 01:57:00;;;;;;;11.10;6.00;;;;;;;4.79;68.83;98842.05;105199;1251;102267;-76
2023/04/16 01:59:28;;;;;;;11.50;5.20;;;;;;;4.81;68.77;98843.74;105449;1257;105489;-75
2023/04/16 02:01:58;;;;;;;13.00;5.60;;;;;;;4.79;68.82;98843.27;105660;1252;96589;-76
2023/04/16 02:04:26;;;;;;;13.00;6.00;;;;;;;4.78;68.84;98844.05;105375;1254;97036;-76
2023/04/16 02:06:54;;;;;;;9.40;5.00;;;;;;;4.76;68.78;98841.65;105385;1257;109896;-76
2023/04/16 02:09:23;;;;;;;8.70;4.30;;;;;;;4.75;68.88;98846.63;105324;1251;102379;-76
2023/04/16 02:11:51;;;;;;;9.80;4.40;;;;;;;4.76;69.01;98847.98;105254;1256;108960;-76
2023/04/16 02:14:18;;;;;;;9.10;4.10;;;;;;;4.79;69.09;98848.20;105439;1251;96658;-76
2023/04/16 02:16:46;;;;;;;9.80;4.30;;;;;;;4.83;69.06;98850.31;105358;1251;97929;-76
2023/04/16 02:19:15;;;;;;;8.80;4.20;;;;;;;4.89;69.06;98849.59;105402;1251;109893;-78
2023/04/16 02:21:42;;;;;;;9.60;4.10;;;;;;;4.94;69.20;98850.61;105363;1256;102048;-77
2023/04/16 02:24:10;;;;;;;7.50;4.50;;;;;;;4.98;69.16;98852.33;105197;1254;107565;-79
2023/04/16 02:26:39;;;;;;;8.00;4.00;;;;;;;5.01;69.21;98852.33;105138;1265;98035;-76
2023/04/16 02:29:07;;;;;;;8.70;3.90;;;;;;;5.02;69.09;98852.11;105249;1257;97118;-78
2023/04/16 02:31:36;;;;;;;7.70;4.20;;;;;;;5.03;69.18;98849.94;105313;1267;111424;-76
2023/04/16 02:34:04;;;;;;;9.50;4.40;;;;;;;5.06;69.10;98849.77;105305;1266;102239;-77
2023/04/16 02:36:33;;;;;;;9.30;4.50;;;;;;;5.10;69.26;98856.43;105111;1257;105871;-77
2023/04/16 02:39:00;;;;;;;7.40;4.20;;;;;;;5.12;69.42;98857.38;105359;1254;96590;-76
2023/04/16 02:41:29;;;;;;;7.70;3.90;;;;;;;5.13;69.35;98864.34;105396;1256;97106;-76
2023/04/16 02:43:57;;;;;;;6.30;3.70;;;;;;;5.14;69.28;98863.56;105287;1251;109622;-76
2023/04/16 02:46:25;;;;;;;8.00;4.10;;;;;;;5.16;69.41;98868.02;105325;1251;102233;-76
2023/04/16 02:48:53;;;;;;;9.60;4.40;;;;;;;5.19;69.38;98868.95;105362;1260;105737;-76
2023/04/16 02:51:21;;;;;;;10.30;4.30;;;;;;;5.21;69.34;98872.52;105519;1254;97788;-77
2023/04/16 02:53:49;;;;;;;10.00;3.80;;;;;;;5.23;69.35;98875.96;105414;1253;96684;-77
2023/04/16 02:56:17;;;;;;;10.70;4.30;;;;;;;5.23;69.44;98877.00;105427;1251;109706;-76
2023/04/16 02:58:45;;;;;;;11.20;5.10;;;;;;;5.22;69.36;98880.04;105311;1254;101855;-77
2023/04/16 03:01:13;;;;;;;12.60;5.50;;;;;;;5.12;69.06;98880.20;105597;1264;108038;-76
2023/04/16 03:03:41;;;;;;;11.80;5.80;;;;;;;5.04;69.11;98883.45;105177;1251;97789;-76
2023/04/16 03:06:09;;;;;;;12.70;6.00;;;;;;;4.98;69.18;98885.02;105210;1256;97000;-77
2023/04/16 03:08:37;;;;;;;14.20;5.50;;;;;;;4.94;69.18;98885.21;105179;1256;109974;-75
2023/04/16 03:11:06;;;;;;;11.70;5.80;;;;;;;4.90;69.28;98884.14;105445;1254;102190;-75
2023/04/16 03:13:34;;;;;;;12.50;5.60;;;;;;;4.85;69.20;98884.61;105390;1252;107561;-75
2023/04/16 03:16:02;;;;;;;11.50;5.30;;;;;;;4.81;69.27;98881.85;105480;1251;176422;-75
2023/04/16 03:18:30;;;;;;;11.00;5.30;;;;;;;4.78;69.33;98885.47;105263;1257;97096;-77
2023/04/16 03:20:58;;;;;;;10.80;5.60;;;;;;;4.74;69.33;98891.11;105361;1255;109881;-76
2023/04/16 03:23:27;;;;;;;10.60;5.20;;;;;;;4.70;69.34;98894.33;105163;1255;102623;-76
2023/04/16 03:25:54;;;;;;;10.90;5.30;;;;;;;4.66;69.23;98896.49;105130;1256;107300;-76
2023/04/16 03:28:23;;;;;;;13.60;5.90;;;;;;;4.61;69.48;98902.67;105426;1253;96603;-76
2023/04/16 03:30:51;;;;;;;11.10;5.40;;;;;;;4.60;69.35;98905.92;105335;1252;98478;-76
2023/04/16 03:33:20;;;;;;;9.70;4.70;;;;;;;4.59;69.42;98912.80;105353;1251;109591;-76
2023/04/16 03:35:57;;;;;;;12.70;5.00;;;;;;;4.58;69.45;98912.69;105306;1255;102727;-76
2023/04/16 03:38:26;;;;;;;11.00;4.80;;;;;;;4.54;69.37;98913.42;105357;1251;108316;-76
2023/04/16 03:40:53;;;;;;;9.10;4.60;;;;;;;4.52;69.41;98915.42;105271;1256;96594;-76
2023/04/16 03:43:21;;;;;;;10.80;4.90;;;;;;;4.52;69.51;98922.99;105203;1256;97097;-77
2023/04/16 03:45:49;;;;;;;9.00;4.60;;;;;;;4.52;69.57;98922.30;105413;1251;109914;-77
2023/04/16 03:48:17;;;;;;;7.70;4.30;;;;;;;4.52;69.46;98928.61;105177;1258;102751;-77
2023/04/16 03:50:46;;;;;;;9.80;4.30;;;;;;;4.50;69.50;98927.33;105187;1251;107839;-77
2023/04/16 03:53:15;;;;;;;10.70;4.80;;;;;;;4.48;69.54;98936.53;105329;1254;97809;-77
2023/04/16 03:55:42;;;;;;;9.30;4.50;;;;;;;4.50;69.58;98942.23;105380;1257;96981;-76
2023/04/16 03:58:10;;;;;;;8.10;4.70;;;;;;;4.53;69.70;98944.70;105394;1256;109332;-77
2023/04/16 04:00:41;;;;;;;9.70;4.40;;;;;;;4.56;69.60;98948.63;105652;1255;101232;-76
2023/04/16 04:03:10;;;;;;;10.30;4.30;;;;;;;4.57;69.66;98952.25;105368;1256;107686;-77
2023/04/16 04:05:39;;;;;;;9.30;4.50;;;;;;;4.60;69.76;98950.86;105289;1256;97932;-76
2023/04/16 04:08:08;;;;;;;9.10;4.30;;;;;;;4.67;69.84;98954.06;105315;1254;97097;-76
2023/04/16 04:10:36;;;;;;;11.40;4.10;;;;;;;4.72;69.76;98953.27;105339;1256;109893;-76
2023/04/16 04:13:05;;;;;;;7.90;4.30;;;;;;;4.75;69.75;98959.75;105335;1253;102584;-77
2023/04/16 04:15:33;;;;;;;7.60;4.30;;;;;;;4.80;69.91;98963.04;105314;1251;107183;-75
2023/04/16 04:18:00;;;;;;;8.80;4.10;;;;;;;4.84;69.85;98965.34;105330;1263;96621;-76
2023/04/16 04:20:28;;;;;;;8.40;4.40;;;;;;;4.87;69.85;98964.96;105359;1251;97918;-76
2023/04/16 04:22:56;;;;;;;10.90;4.50;;;;;;;4.92;69.91;98971.75;105415;1252;111701;-76
2023/04/16 04:25:24;;;;;;;10.10;4.60;;;;;;;4.96;69.95;98974.00;105174;1251;102974;-77
2023/04/16 04:27:52;;;;;;;6.70;4.00;;;;;;;4.98;69.91;98972.16;105316;1256;107627;-76
2023/04/16 04:30:20;;;;;;;7.70;4.10;;;;;;;5.00;69.81;98971.02;105394;1256;96575;-77
2023/04/16 04:32:47;;;;;;;9.10;4.20;;;;;;;5.04;69.87;98975.90;105403;1252;97105;-76
2023/04/16 04:35:15;;;;;;;10.00;4.60;;;;;;;5.05;69.92;98975.29;105195;1254;108617;-78
2023/04/16 04:37:43;;;;;;;7.20;4.10;;;;;;;5.08;69.99;98976.41;105382;1253;102185;-77
2023/04/16 04:40:11;;;;;;;9.50;4.40;;;;;;;5.10;69.89;98979.11;105154;1257;108347;-76
2023/04/16 04:42:39;;;;;;;5.40;3.60;;;;;;;5.13;70.07;98985.45;105396;1255;96592;-76
2023/04/16 04:45:07;;;;;;;12.00;5.10;;;;;;;5.17;69.94;98984.02;105382;1255;97918;-76
2023/04/16 04:47:35;;;;;;;22.90;11.20;;;;;;;5.19;69.87;98986.00;105266;1252;109992;-76
2023/04/16 04:50:03;;;;;;;22.80;12.30;;;;;;;5.19;69.91;98988.29;105401;1253;103760;-76
2023/04/16 04:52:31;;;;;;;26.20;14.40;;;;;;;5.20;70.08;98995.27;105325;1274;106655;-76
2023/04/16 04:54:59;;;;;;;20.40;10.50;;;;;;;5.28;70.15;98996.31;105337;1253;96593;-76
2023/04/16 04:57:27;;;;;;;21.30;11.00;;;;;;;5.35;70.11;99000.67;105313;1255;97100;-77
2023/04/16 04:59:55;;;;;;;20.40;10.60;;;;;;;5.43;70.19;99003.77;105336;1252;110541;-78
2023/04/16 05:02:25;;;;;;;17.00;8.00;;;;;;;5.50;70.19;99003.58;105546;1257;102232;-77
2023/04/16 05:04:53;;;;;;;15.40;7.10;;;;;;;5.56;70.12;99009.25;105353;1256;107401;-76
2023/04/16 05:07:24;;;;;;;16.00;6.90;;;;;;;5.58;70.24;99008.80;105427;1254;97797;-76
2023/04/16 05:09:52;;;;;;;13.60;7.10;;;;;;;5.62;70.06;99014.04;105366;1251;97190;-75
2023/04/16 05:12:20;;;;;;;15.80;6.60;;;;;;;5.67;70.20;99015.57;105441;1250;108857;-76
2023/04/16 05:14:47;;;;;;;14.20;6.20;;;;;;;5.72;70.33;99017.58;105184;1255;101858;-76
2023/04/16 05:17:15;;;;;;;14.40;6.40;;;;;;;5.77;70.40;99013.09;105342;1253;107612;-78
2023/04/16 05:19:43;;;;;;;15.00;7.30;;;;;;;5.83;70.33;99019.27;105392;1254;96606;-77
2023/04/16 05:22:11;;;;;;;18.40;7.30;;;;;;;5.89;70.48;99016.82;105396;1254;96557;-76
2023/04/16 05:24:39;;;;;;;18.70;8.40;;;;;;;5.96;70.38;99019.98;105321;1254;109865;-77
2023/04/16 05:27:07;;;;;;;17.10;7.40;;;;;;;6.02;70.45;99024.95;105376;1251;101476;-76
2023/04/16 05:29:34;;;;;;;16.90;7.40;;;;;;;6.09;70.48;99025.14;105214;1274;107617;-76
2023/04/16 05:32:02;;;;;;;15.30;7.20;;;;;;;6.16;70.55;99023.52;105390;1254;96898;-77
2023/04/16 05:34:30;;;;;;;14.80;6.20;;;;;;;6.24;70.52;99017.95;105245;1255;97621;-75
2023/04/16 05:36:58;;;;;;;14.10;6.00;;;;;;;6.31;70.66;99018.64;105388;1251;109367;-76
2023/04/16 05:39:25;;;;;;;15.10;5.30;;;;;;;6.38;70.71;99017.69;105427;1252;102524;-77
2023/04/16 05:41:54;;;;;;;9.10;4.70;;;;;;;6.47;70.77;99020.02;105351;1267;107544;-76
2023/04/16 05:44:22;;;;;;;8.60;4.40;;;;;;;6.56;70.65;99020.95;105497;1255;96614;-75
2023/04/16 05:46:50;;;;;;;6.80;3.90;;;;;;;6.65;70.67;99025.22;105359;1256;97241;-80
2023/04/16 05:49:18;;;;;;;11.00;5.00;;;;;;;6.72;70.72;99028.67;105205;1256;109600;-76
2023/04/16 05:51:47;;;;;;;8.00;4.20;;;;;;;6.78;70.93;99029.40;105270;1274;102448;-79
2023/04/16 05:54:17;;;;;;;7.90;3.80;;;;;;;6.86;70.63;99029.63;105308;1274;107225;-76
2023/04/16 05:56:45;;;;;;;6.40;3.60;;;;;;;6.94;70.68;99030.57;105436;1254;96576;-76
2023/04/16 05:59:13;;;;;;;8.00;4.30;;;;;;;7.03;70.61;99034.48;105335;1255;98032;-77
2023/04/16 06:01:41;;;;;;;6.50;3.70;;;;;;;7.09;70.49;99039.56;105725;1251;109852;-76
2023/04/16 06:04:08;;;;;;;6.70;3.60;;;;;;;7.16;70.64;99042.52;105408;1255;102006;-78
2023/04/16 06:06:36;;;;;;;5.60;3.70;;;;;;;7.24;70.78;99041.02;105165;1256;106790;-77
2023/04/16 06:09:04;;;;;;;8.80;3.60;;;;;;;7.35;71.01;99043.73;105410;1256;96684;-77
2023/04/16 06:11:32;;;;;;;6.00;3.80;;;;;;;7.46;70.95;99046.08;105143;1256;97058;-77
2023/04/16 06:14:03;;;;;;;7.30;3.60;;;;;;;7.55;70.92;99047.46;105365;1251;110014;-77
2023/04/16 06:16:31;;;;;;;9.60;4.20;;;;;;;7.62;70.89;99044.20;105446;1254;102033;-76
2023/04/16 06:18:59;;;;;;;7.10;3.60;;;;;;;7.71;70.93;99048.44;105273;1256;107626;-81
2023/04/16 06:21:27;;;;;;;6.50;3.60;;;;;;;7.80;70.79;99049.45;105369;1251;97542;-77
2023/04/16 06:23:55;;;;;;;6.30;3.80;;;;;;;7.90;70.96;99053.64;105330;1256;97036;-76
2023/04/16 06:26:23;;;;;;;5.90;3.60;;;;;;;7.99;70.90;99052.73;105367;1252;109545;-77
2023/04/16 06:28:51;;;;;;;6.20;3.50;;;;;;;8.05;70.71;99056.92;105218;1251;102331;-78
2023/04/16 06:31:19;;;;;;;4.90;3.20;;;;;;;8.12;70.91;99057.41;105312;1256;107411;-76
2023/04/16 06:33:47;;;;;;;5.60;3.00;;;;;;;8.16;70.77;99057.48;105277;1253;96597;-77
2023/04/16 06:36:15;;;;;;;6.40;3.80;;;;;;;8.22;70.84;99058.52;105167;1256;97050;-76
2023/04/16 06:38:43;;;;;;;3.60;2.90;;;;;;;8.30;70.92;99061.06;105284;1255;109374;-76
2023/04/16 06:41:13;;;;;;;5.00;3.50;;;;;;;8.40;71.12;99059.49;105372;1255;102267;-77
2023/04/16 06:43:41;;;;;;;5.30;3.40;;;;;;;8.51;70.97;99058.69;105208;1257;107893;-76
2023/04/16 06:46:09;;;;;;;5.30;3.20;;;;;;;8.59;70.99;99056.77;105234;1256;96604;-77
2023/04/16 06:48:37;;;;;;;7.70;3.40;;;;;;;8.65;70.88;99057.42;105366;1255;97116;-77
2023/04/16 06:51:04;;;;;;;6.50;3.40;;;;;;;8.70;70.91;99057.67;105464;1252;108707;-79
2023/04/16 06:53:32;;;;;;;6.10;3.20;;;;;;;8.76;70.98;99061.69;105354;1256;101874;-76
2023/04/16 06:56:00;;;;;;;6.20;3.50;;;;;;;8.81;70.81;99059.94;105444;1255;107628;-78
2023/04/16 06:58:28;;;;;;;7.10;2.90;;;;;;;8.85;70.78;99062.90;105394;1256;96578;-81
2023/04/16 07:00:56;;;;;;;4.90;3.10;;;;;;;8.90;70.84;99059.88;105468;1256;97174;-77
2023/04/16 07:03:25;;;;;;;6.80;3.40;;;;;;;9.01;70.90;99062.52;105253;1267;109902;-81
2023/04/16 07:05:53;;;;;;;6.60;3.40;;;;;;;9.10;70.92;99063.50;105443;1255;101897;-76
2023/04/16 07:08:21;;;;;;;6.70;3.50;;;;;;;9.22;71.01;99070.31;105484;1256;107380;-76
2023/04/16 07:10:49;;;;;;;5.90;3.00;;;;;;;9.32;71.07;99068.63;105165;1264;97815;-76
2023/04/16 07:13:17;;;;;;;6.80;3.10;;;;;;;9.40;70.95;99075.84;108694;1251;94262;-77
2023/04/16 07:15:45;;;;;;;5.30;2.90;;;;;;;9.44;70.73;99074.54;108780;1250;109578;-76
2023/04/16 07:18:13;;;;;;;4.80;3.20;;;;;;;9.49;70.84;99079.88;106370;1251;101893;-80
2023/04/16 07:20:41;;;;;;;5.40;3.20;;;;;;;9.56;70.83;99079.23;105374;1269;107698;-77
2023/04/16 07:23:08;;;;;;;5.40;2.90;;;;;;;9.64;70.85;99078.84;105173;1256;98078;-79
2023/04/16 07:25:36;;;;;;;4.40;2.90;;;;;;;9.67;70.76;99081.28;105413;1253;96590;-75
2023/04/16 07:28:04;;;;;;;3.30;2.90;;;;;;;9.69;70.65;99080.60;105432;1253;109266;-75
2023/04/16 07:30:35;;;;;;;5.80;3.20;;;;;;;9.71;70.54;99081.94;105256;1268;102447;-76
2023/04/16 07:33:03;;;;;;;8.80;3.20;;;;;;;9.73;70.70;99087.96;105101;1256;107664;-76
2023/04/16 07:35:31;;;;;;;4.70;2.90;;;;;;;9.77;70.73;99087.73;105352;1255;96575;-76
2023/04/16 07:37:59;;;;;;;5.10;3.20;;;;;;;9.83;70.78;99095.27;105359;1254;97109;-77
2023/04/16 07:40:27;;;;;;;6.70;2.70;;;;;;;9.88;70.64;99093.81;105413;1252;109860;-75
2023/04/16 07:42:55;;;;;;;3.70;2.50;;;;;;;9.90;70.56;99094.55;105332;1255;102432;-76
2023/04/16 07:45:23;;;;;;;3.60;2.60;;;;;;;9.95;70.72;99094.08;105088;1257;107611;-76
2023/04/16 07:47:51;;;;;;;5.50;2.80;;;;;;;10.04;70.66;99091.46;105264;1253;96598;-75
2023/04/16 07:50:19;;;;;;;4.30;2.60;;;;;;;10.12;70.76;99090.59;105318;1252;97090;-76
2023/04/16 07:52:47;;;;;;;3.60;2.50;;;;;;;10.22;70.80;99093.81;105252;1254;109747;-76
2023/04/16 07:55:15;;;;;;;5.00;2.80;;;;;;;10.32;70.72;99094.17;105454;1256;102767;-79
2023/04/16 07:57:43;;;;;;;4.10;2.60;;;;;;;10.35;70.58;99090.02;105271;1256;108154;-76
2023/04/16 08:00:11;;;;;;;5.50;2.70;;;;;;;10.36;70.34;99091.23;105357;1274;96601;-75
2023/04/16 08:02:40;;;;;;;3.20;2.10;;;;;;;10.37;70.45;99094.30;105394;1251;97816;-77
2023/04/16 08:05:08;;;;;;;4.70;2.50;;;;;;;10.42;70.40;99097.15;105412;1255;109636;-77
2023/04/16 08:07:36;;;;;;;3.70;2.20;;;;;;;10.43;70.14;99094.45;105176;1255;102322;-83
2023/04/16 08:10:04;;;;;;;3.90;2.20;;;;;;;10.42;70.15;99099.30;105480;1256;107140;-77
2023/04/16 08:12:33;;;;;;;3.20;2.10;;;;;;;10.43;70.08;99100.49;105382;1251;96596;-77
2023/04/16 08:15:00;;;;;;;4.20;2.50;;;;;;;10.44;70.06;99097.59;105312;1253;97019;-80
2023/04/16 08:17:29;;;;;;;7.20;2.70;;;;;;;10.47;70.18;99095.79;105401;1253;109932;-79
2023/04/16 08:19:56;;;;;;;5.90;2.40;;;;;;;10.50;70.32;99095.02;105346;1256;102797;-78
2023/04/16 08:22:25;;;;;;;4.70;2.50;;;;;;;10.56;70.27;99100.79;105382;1256;107892;-78
2023/04/16 08:24:53;;;;;;;3.20;2.40;;;;;;;10.62;70.12;99098.95;105404;1256;96673;-76
2023/04/16 08:27:21;;;;;;;4.00;2.40;;;;;;;10.69;70.18;99099.13;105339;1256;97806;-80
2023/04/16 08:29:49;;;;;;;4.30;2.30;;;;;;;10.73;70.08;99099.27;105111;1269;109577;-76
2023/04/16 08:32:17;;;;;;;4.30;2.30;;;;;;;10.77;70.03;99102.67;105214;1251;101950;-76
2023/04/16 08:34:45;;;;;;;5.00;2.40;;;;;;;10.83;70.09;99104.37;105317;1257;108061;-78
2023/04/16 08:37:13;;;;;;;2.30;2.00;;;;;;;10.90;69.85;99104.05;108596;1253;94605;-78
2023/04/16 08:39:40;;;;;;;3.30;2.20;;;;;;;10.95;69.81;99107.23;107592;1253;96651;-77
2023/04/16 08:42:21;;;;;;;3.50;1.80;;;;;;;11.09;70.15;99107.77;105323;1256;109872;-77
2023/04/16 08:44:56;;;;;;;3.80;2.50;;;;;;;11.23;70.12;99105.73;105520;1256;102249;-78
2023/04/16 08:47:27;;;;;;;3.20;2.20;;;;;;;11.32;70.09;99109.46;105433;1257;107074;-77
2023/04/16 08:49:58;;;;;;;4.60;2.20;;;;;;;11.44;70.12;99112.12;105356;1257;96588;-78
2023/04/16 08:52:30;;;;;;;2.60;1.90;;;;;;;11.58;69.95;99110.02;105492;1255;97023;-78
2023/04/16 08:55:10;;;;;;;3.50;2.30;;;;;;;11.69;69.65;99109.92;105377;1253;109710;-77
2023/04/16 08:57:46;;;;;;;3.40;2.00;;;;;;;11.74;69.80;99104.66;105326;1252;102171;-76
2023/04/16 09:00:15;;;;;;;2.80;2.10;;;;;;;11.79;69.22;99100.63;105590;1255;107358;-73
2023/04/16 09:02:43;;;;;;;4.40;2.10;;;;;;;11.84;69.17;99104.50;105487;1256;96585;-76
2023/04/16 09:05:15;;;;;;;4.40;2.00;;;;;;;11.88;69.52;99104.32;105624;1256;96532;-74
2023/04/16 09:07:45;;;;;;;2.90;1.70;;;;;;;11.93;69.52;99108.04;105372;1255;109864;-75
2023/04/16 09:10:16;;;;;;;3.10;2.30;;;;;;;11.99;69.48;99114.92;106025;1252;102320;-79
2023/04/16 09:12:44;;;;;;;4.40;2.20;;;;;;;11.98;69.19;99119.44;105442;1255;107649;-77
2023/04/16 09:15:13;;;;;;;2.10;1.80;;;;;;;11.97;69.18;99121.23;105167;1256;96503;-76
2023/04/16 09:17:41;;;;;;;3.10;1.90;;;;;;;12.02;69.46;99123.58;105249;1252;97107;-75
2023/04/16 09:20:09;;;;;;;4.50;2.00;;;;;;;12.09;69.31;99124.08;105326;1253;109634;-75
2023/04/16 09:22:41;;;;;;;2.70;2.10;;;;;;;12.19;68.97;99122.61;105185;1270;102082;-75
2023/04/16 09:25:10;;;;;;;3.00;2.10;;;;;;;12.29;68.92;99124.46;105073;1257;107740;-75
2023/04/16 09:27:38;;;;;;;2.70;2.00;;;;;;;12.37;68.64;99116.38;108706;1251;94518;-75
2023/04/16 09:30:22;;;;;;;2.80;1.80;;;;;;;12.50;67.68;99116.83;108785;1251;94494;-75
2023/04/16 09:32:51;;;;;;;3.70;1.80;;;;;;;12.60;68.67;99115.86;106349;1253;108665;-74
2023/04/16 09:35:20;;;;;;;1.70;1.60;;;;;;;12.67;68.86;99119.16;105576;1255;102222;-75
2023/04/16 09:37:56;;;;;;;3.50;2.00;;;;;;;12.74;68.80;99120.92;105556;1264;107618;-77
2023/04/16 09:40:29;;;;;;;5.30;1.60;;;;;;;12.80;68.79;99119.23;105391;1253;96575;-76
2023/04/16 09:42:59;;;;;;;3.80;1.60;;;;;;;12.92;68.85;99121.82;106666;1252;96646;-76
2023/04/16 09:45:33;;;;;;;2.50;1.60;;;;;;;13.08;69.01;99120.81;106947;1255;109907;-78
2023/04/16 09:48:04;;;;;;;3.30;1.90;;;;;;;13.20;68.62;99118.98;105558;1253;100902;-74
2023/04/16 09:50:32;;;;;;;2.40;1.80;;;;;;;13.23;68.58;99118.73;106043;1253;107647;-76
2023/04/16 09:53:02;;;;;;;2.70;1.70;;;;;;;13.20;68.48;99122.52;105587;1251;96618;-78
2023/04/16 09:55:31;;;;;;;2.30;1.60;;;;;;;13.24;68.64;99120.82;105564;1255;98452;-75
2023/04/16 09:57:59;;;;;;;2.50;1.50;;;;;;;13.29;68.31;99123.22;105620;1256;110260;-77
2023/04/16 10:00:30;;;;;;;1.80;1.60;;;;;;;13.33;68.23;99122.18;105429;1254;102075;-74
2023/04/16 10:03:05;;;;;;;3.80;1.30;;;;;;;13.44;68.57;99119.20;105886;1255;106633;-75
2023/04/16 10:05:34;;;;;;;3.10;1.50;;;;;;;13.63;68.46;99119.70;105309;1269;97034;-75
2023/04/16 10:08:10;;;;;;;3.10;1.90;;;;;;;13.86;68.72;99119.44;105590;1253;96651;-76
2023/04/16 10:10:39;;;;;;;1.70;1.20;;;;;;;14.05;68.24;99117.05;105408;1256;110101;-76
2023/04/16 10:13:07;;;;;;;2.20;1.40;;;;;;;14.09;68.08;99116.84;105431;1256;101522;-74
2023/04/16 10:15:35;;;;;;;2.80;1.40;;;;;;;14.17;68.01;99115.33;105480;1256;108032;-77
2023/04/16 10:18:05;;;;;;;3.30;1.60;;;;;;;14.22;68.05;99120.08;105563;1256;96883;-74
2023/04/16 10:20:33;;;;;;;3.50;1.70;;;;;;;14.30;67.90;99123.85;105420;1255;97204;-75
2023/04/16 10:23:02;;;;;;;1.90;1.40;;;;;;;14.36;67.58;99124.22;105455;1253;109887;-77
2023/04/16 10:25:30;;;;;;;2.50;1.50;;;;;;;14.43;67.72;99120.02;105417;1256;100957;-75
2023/04/16 10:27:59;;;;;;;1.60;1.30;;;;;;;14.60;67.78;99118.38;105623;1252;107614;-74
2023/04/16 10:30:27;;;;;;;2.70;1.70;;;;;;;14.75;67.77;99120.84;105539;1256;97258;-75
2023/04/16 10:32:56;;;;;;;3.40;1.60;;;;;;;14.82;67.46;99119.13;105383;1256;97147;-74
2023/04/16 10:35:27;;;;;;;2.20;1.60;;;;;;;14.81;67.31;99123.71;105389;1256;109353;-75
2023/04/16 10:38:25;;;;;;;2.10;1.40;;;;;;;14.78;67.14;99119.29;105583;1251;102331;-77
2023/04/16 10:41:02;;;;;;;2.70;1.50;;;;;;;14.82;67.06;99122.00;107174;1253;108271;-75
2023/04/16 10:43:39;;;;;;;2.50;1.70;;;;;;;14.86;67.02;99122.02;108730;1251;94257;-76
2023/04/16 10:46:25;;;;;;;2.30;1.60;;;;;;;14.99;67.01;99121.55;106625;1254;97013;-76
2023/04/16 10:48:55;;;;;;;3.60;2.50;;;;;;;15.17;66.95;99113.49;105646;1256;109359;-76
2023/04/16 10:51:30;;;;;;;4.10;3.00;;;;;;;15.29;66.94;99110.96;105728;1256;102907;-74
2023/04/16 10:54:03;;;;;;;5.70;2.90;;;;;;;15.36;66.74;99115.56;105606;1256;107576;-72
2023/04/16 10:56:32;;;;;;;3.60;3.00;;;;;;;15.37;66.71;99112.92;105406;1256;96951;-72
2023/04/16 10:59:03;;;;;;;4.50;2.90;;;;;;;15.42;66.64;99110.83;105236;1256;97135;-72
2023/04/16 11:01:35;;;;;;;5.60;3.10;;;;;;;15.42;66.65;99109.38;105745;1254;109927;-73
2023/04/16 11:04:19;;;;;;;6.40;3.40;;;;;;;15.40;66.39;99108.34;105409;1256;100853;-72
2023/04/16 11:07:15;;;;;;;7.10;3.50;;;;;;;15.42;66.25;99107.27;105547;1252;107606;-71
2023/04/16 11:09:45;;;;;;;6.60;2.40;;;;;;;15.42;66.07;99110.45;105561;1255;96673;-71
2023/04/16 11:12:15;;;;;;;6.30;2.50;;;;;;;15.47;66.06;99111.43;105310;1256;97059;-74
2023/04/16 11:15:06;;;;;;;3.30;2.50;;;;;;;15.59;66.08;99118.41;105477;1256;109902;-71
2023/04/16 11:17:39;;;;;;;3.30;1.90;;;;;;;15.72;66.07;99117.61;105631;1254;102393;-72
2023/04/16 11:20:14;;;;;;;3.90;2.50;;;;;;;15.91;65.97;99117.80;105515;1255;107782;-71
2023/04/16 11:22:52;;;;;;;5.20;2.30;;;;;;;16.08;66.00;99112.80;105529;1256;97033;-75
2023/04/16 11:25:29;;;;;;;7.80;3.00;;;;;;;16.24;65.72;99110.61;105582;1256;96617;-73
2023/04/16 11:28:05;;;;;;;3.60;2.40;;;;;;;16.32;65.54;99112.48;105604;1256;110484;-71
2023/04/16 11:30:35;;;;;;;3.60;2.40;;;;;;;16.40;65.31;99107.48;105648;1256;102500;-70